createdAt,value
2022-08-18T00:00:31.017Z,18.80
2022-08-18T00:03:08.971Z,18.70
2022-08-18T00:05:51.949Z,18.70
2022-08-18T00:08:18.058Z,18.70
2022-08-18T00:10:44.230Z,18.70
2022-08-18T00:13:10.617Z,18.70
2022-08-18T00:15:41.436Z,18.70
2022-08-18T00:18:10.023Z,18.70
2022-08-18T00:20:37.154Z,18.70
2022-08-18T00:23:03.500Z,18.70
2022-08-18T00:25:29.672Z,18.70
2022-08-18T00:27:55.750Z,18.70
2022-08-18T00:30:22.032Z,18.70
2022-08-18T00:32:54.214Z,18.60
2022-08-18T00:35:29.003Z,18.60
2022-08-18T00:38:00.083Z,18.60
2022-08-18T00:40:35.764Z,18.60
2022-08-18T00:43:06.472Z,18.60
2022-08-18T00:45:37.904Z,18.50
2022-08-18T00:48:05.487Z,18.50
2022-08-18T00:50:36.336Z,18.50
2022-08-18T00:53:13.763Z,18.50
2022-08-18T00:55:54.067Z,18.50
2022-08-18T00:58:48.789Z,18.50
2022-08-18T01:01:18.571Z,18.40
2022-08-18T01:03:53.236Z,18.40
2022-08-18T01:06:57.750Z,18.30
2022-08-18T01:09:24.245Z,18.30
2022-08-18T01:11:50.784Z,18.20
2022-08-18T01:14:17.935Z,18.20
2022-08-18T01:17:07.665Z,18.20
2022-08-18T01:19:53.040Z,18.20
2022-08-18T01:22:46.840Z,18.20
2022-08-18T01:25:32.924Z,18.10
2022-08-18T01:28:01.649Z,18.10
2022-08-18T01:30:28.523Z,18.10
2022-08-18T01:32:56.333Z,18.10
2022-08-18T01:35:25.438Z,18.20
2022-08-18T01:37:53.002Z,18.10
2022-08-18T01:41:24.150Z,18.20
2022-08-18T01:43:08.197Z,18.10
2022-08-18T01:45:34.677Z,18.10
2022-08-18T01:48:01.167Z,18.00
2022-08-18T01:50:27.598Z,18.10
2022-08-18T01:52:53.981Z,18.10
2022-08-18T01:55:20.604Z,18.20
2022-08-18T01:57:46.790Z,18.20
2022-08-18T02:00:16.671Z,18.30
2022-08-18T02:02:43.110Z,18.30
2022-08-18T02:05:16.322Z,18.30
2022-08-18T02:07:42.625Z,18.30
2022-08-18T02:10:12.629Z,18.30
2022-08-18T02:12:43.127Z,18.30
2022-08-18T02:15:10.409Z,18.30
2022-08-18T02:17:39.013Z,18.20
2022-08-18T02:20:07.678Z,18.20
2022-08-18T02:22:34.487Z,18.10
2022-08-18T02:25:00.988Z,18.10
2022-08-18T02:27:28.089Z,18.00
2022-08-18T02:29:54.579Z,18.00
2022-08-18T02:32:20.791Z,18.00
2022-08-18T02:34:46.879Z,17.90
2022-08-18T02:37:15.331Z,17.90
2022-08-18T02:39:43.353Z,18.00
2022-08-18T02:42:10.322Z,18.00
2022-08-18T02:44:38.909Z,18.00
2022-08-18T02:47:05.078Z,18.10
2022-08-18T02:49:31.351Z,18.10
2022-08-18T02:51:57.952Z,18.20
2022-08-18T02:54:25.139Z,18.20
2022-08-18T02:56:52.912Z,18.30
2022-08-18T02:59:23.948Z,18.30
2022-08-18T03:01:52.741Z,18.30
2022-08-18T03:04:28.101Z,18.30
2022-08-18T03:06:56.649Z,18.30
2022-08-18T03:09:22.830Z,18.30
2022-08-18T03:11:49.198Z,18.30
2022-08-18T03:14:16.146Z,18.20
2022-08-18T03:16:54.285Z,18.10
2022-08-18T03:19:27.972Z,18.10
2022-08-18T03:21:55.164Z,18.00
2022-08-18T03:24:25.472Z,18.00
2022-08-18T03:26:53.463Z,18.00
2022-08-18T03:29:20.648Z,18.00
2022-08-18T03:31:47.943Z,17.90
2022-08-18T03:34:20.046Z,17.90
2022-08-18T03:36:49.203Z,17.90
2022-08-18T03:39:16.740Z,17.90
2022-08-18T03:41:59.061Z,18.00
2022-08-18T03:44:29.858Z,18.00
2022-08-18T03:46:59.754Z,18.00
2022-08-18T03:49:27.624Z,18.00
2022-08-18T03:51:54.133Z,17.90
2022-08-18T03:54:20.283Z,17.90
2022-08-18T03:56:48.745Z,17.90
2022-08-18T03:59:19.059Z,17.80
2022-08-18T04:01:47.450Z,17.80
2022-08-18T04:04:17.010Z,17.70
2022-08-18T04:06:55.088Z,17.70
2022-08-18T04:09:23.935Z,17.70
2022-08-18T04:11:50.430Z,17.70
2022-08-18T04:14:19.629Z,17.70
2022-08-18T04:16:47.206Z,17.80
2022-08-18T04:19:13.546Z,17.80
2022-08-18T04:21:41.604Z,17.90
2022-08-18T04:24:09.265Z,18.00
2022-08-18T04:26:38.546Z,18.00
2022-08-18T04:29:07.135Z,18.10
2022-08-18T04:31:33.528Z,18.20
2022-08-18T04:34:00.742Z,18.20
2022-08-18T04:36:31.422Z,18.20
2022-08-18T04:38:58.412Z,18.20
2022-08-18T04:41:27.054Z,18.20
2022-08-18T04:43:58.513Z,18.20
2022-08-18T04:46:25.512Z,18.10
2022-08-18T04:48:52.307Z,18.00
2022-08-18T04:52:30.771Z,18.00
2022-08-18T04:54:06.310Z,18.00
2022-08-18T04:56:36.796Z,17.90
2022-08-18T04:59:06.733Z,17.90
2022-08-18T05:01:38.780Z,17.90
2022-08-18T05:04:05.589Z,17.90
2022-08-18T05:06:32.597Z,17.90
2022-08-18T05:09:01.535Z,17.90
2022-08-18T05:11:32.785Z,17.90
2022-08-18T05:14:00.211Z,17.90
2022-08-18T05:16:28.144Z,17.90
2022-08-18T05:18:54.500Z,17.90
2022-08-18T05:21:22.271Z,17.90
2022-08-18T05:23:51.143Z,17.90
2022-08-18T05:26:18.646Z,18.00
2022-08-18T05:28:46.458Z,18.00
2022-08-18T05:31:15.885Z,18.10
2022-08-18T05:33:42.623Z,18.20
2022-08-18T05:36:20.999Z,18.20
2022-08-18T05:38:56.369Z,18.30
2022-08-18T05:41:30.782Z,18.30
2022-08-18T05:43:57.729Z,18.40
2022-08-18T05:46:40.178Z,18.40
2022-08-18T05:49:06.421Z,18.40
2022-08-18T05:51:53.148Z,18.40
2022-08-18T05:54:39.899Z,18.40
2022-08-18T05:57:16.616Z,18.70
2022-08-18T05:59:44.801Z,19.30
2022-08-18T06:02:14.056Z,19.90
2022-08-18T06:04:50.941Z,20.30
2022-08-18T06:07:26.562Z,20.70
2022-08-18T06:10:00.241Z,21.10
2022-08-18T06:12:50.523Z,21.40
2022-08-18T06:15:42.873Z,21.80
2022-08-18T06:18:36.855Z,22.10
2022-08-18T06:21:22.066Z,22.50
2022-08-18T06:24:15.174Z,23.00
2022-08-18T06:27:21.814Z,23.30
2022-08-18T06:30:04.533Z,23.60
2022-08-18T06:33:02.212Z,23.90
2022-08-18T06:36:21.719Z,24.20
2022-08-18T06:39:02.155Z,24.60
2022-08-18T06:41:43.015Z,25.00
2022-08-18T06:44:34.123Z,25.30
2022-08-18T06:47:28.035Z,25.70
2022-08-18T06:50:02.548Z,26.10
2022-08-18T06:52:33.146Z,26.20
2022-08-18T06:55:31.917Z,26.60
2022-08-18T06:58:02.457Z,26.90
2022-08-18T07:00:33.654Z,27.10
2022-08-18T07:03:16.140Z,27.50
2022-08-18T07:06:09.742Z,27.80
2022-08-18T07:08:42.221Z,28.00
2022-08-18T07:11:21.922Z,28.20
2022-08-18T07:14:09.537Z,28.50
2022-08-18T07:16:57.724Z,28.70
2022-08-18T07:19:29.468Z,29.00
2022-08-18T07:22:05.805Z,29.30
2022-08-18T07:24:37.061Z,29.50
2022-08-18T07:27:03.243Z,29.70
2022-08-18T07:29:36.680Z,29.90
2022-08-18T07:32:21.195Z,29.60
2022-08-18T07:34:53.448Z,30.00
2022-08-18T07:37:29.213Z,30.40
2022-08-18T07:40:21.698Z,30.90
2022-08-18T07:43:01.039Z,31.30
2022-08-18T07:45:47.402Z,31.60
2022-08-18T07:48:40.391Z,31.60
2022-08-18T07:51:36.856Z,31.20
2022-08-18T07:54:48.827Z,30.60
2022-08-18T07:57:19.297Z,30.50
2022-08-18T08:00:23.118Z,30.50
2022-08-18T08:03:06.146Z,30.40
2022-08-18T08:05:48.208Z,30.50
2022-08-18T08:08:50.765Z,31.20
2022-08-18T08:11:20.448Z,31.40
2022-08-18T08:14:06.462Z,31.00
2022-08-18T08:16:40.003Z,31.80
2022-08-18T08:19:12.756Z,32.70
2022-08-18T08:22:04.690Z,32.90
2022-08-18T08:25:22.405Z,33.60
2022-08-18T08:28:22.567Z,32.30
2022-08-18T08:31:35.619Z,31.40
2022-08-18T08:34:22.340Z,31.80
2022-08-18T08:36:54.748Z,33.40
2022-08-18T08:39:44.613Z,34.40
2022-08-18T08:42:30.536Z,35.30
2022-08-18T08:45:06.230Z,36.10
2022-08-18T08:48:09.716Z,35.30
2022-08-18T08:50:46.518Z,33.30
2022-08-18T08:53:21.785Z,31.50
2022-08-18T08:55:52.954Z,30.30
2022-08-18T08:58:36.225Z,29.40
2022-08-18T09:01:03.356Z,28.70
2022-08-18T09:03:32.536Z,28.30
2022-08-18T09:06:08.346Z,28.10
2022-08-18T09:08:56.496Z,28.70
2022-08-18T09:11:52.878Z,31.00
2022-08-18T09:14:54.061Z,31.80
2022-08-18T09:17:55.321Z,31.30
2022-08-18T09:20:56.964Z,30.20
2022-08-18T09:23:31.936Z,29.10
2022-08-18T09:26:19.296Z,28.40
2022-08-18T09:28:59.088Z,27.90
2022-08-18T09:31:27.630Z,27.50
2022-08-18T09:34:26.440Z,27.30
2022-08-18T09:37:02.657Z,28.70
2022-08-18T09:39:55.206Z,31.50
2022-08-18T09:42:53.213Z,33.90
2022-08-18T09:45:33.605Z,35.80
2022-08-18T09:50:37.216Z,36.80
2022-08-18T09:51:15.006Z,35.60
2022-08-18T09:53:52.417Z,33.80
2022-08-18T09:56:53.964Z,32.40
2022-08-18T09:59:34.241Z,31.30
2022-08-18T10:02:05.722Z,30.40
2022-08-18T10:04:50.629Z,29.80
2022-08-18T10:07:19.622Z,29.40
2022-08-18T10:09:50.402Z,29.10
2022-08-18T10:12:33.079Z,28.90
2022-08-18T10:15:33.106Z,28.90
2022-08-18T10:18:27.573Z,28.80
2022-08-18T10:21:21.165Z,28.40
2022-08-18T10:24:21.879Z,28.10
2022-08-18T10:26:54.136Z,27.90
2022-08-18T10:29:27.829Z,27.70
2022-08-18T10:31:57.673Z,27.60
2022-08-18T10:34:36.633Z,27.50
2022-08-18T10:37:13.221Z,27.60
2022-08-18T10:39:50.129Z,27.60
2022-08-18T10:42:23.806Z,27.60
2022-08-18T10:45:13.104Z,27.70
2022-08-18T10:48:11.950Z,28.00
2022-08-18T10:51:11.480Z,28.20
2022-08-18T10:53:44.551Z,28.60
2022-08-18T10:56:40.105Z,29.40
2022-08-18T10:59:29.223Z,31.60
2022-08-18T11:02:28.757Z,33.70
2022-08-18T11:04:58.625Z,35.60
2022-08-18T11:07:28.608Z,37.20
2022-08-18T11:10:27.930Z,38.30
2022-08-18T11:13:07.293Z,39.00
2022-08-18T11:15:58.264Z,38.60
2022-08-18T11:18:49.181Z,37.30
2022-08-18T11:21:33.911Z,35.80
2022-08-18T11:24:11.612Z,34.60
2022-08-18T11:26:52.757Z,33.40
2022-08-18T11:29:39.747Z,32.60
2022-08-18T11:32:18.135Z,31.90
2022-08-18T11:34:53.177Z,31.40
2022-08-18T11:37:51.239Z,31.20
2022-08-18T11:41:08.944Z,31.00
2022-08-18T11:43:24.038Z,31.00
2022-08-18T11:45:57.428Z,30.90
2022-08-18T11:48:51.814Z,31.00
2022-08-18T11:51:28.149Z,33.20
2022-08-18T11:54:13.717Z,34.00
2022-08-18T11:56:40.784Z,33.30
2022-08-18T11:59:52.631Z,32.70
2022-08-18T12:02:20.433Z,32.20
2022-08-18T12:04:52.489Z,31.60
2022-08-18T12:07:29.747Z,31.30
2022-08-18T12:10:26.542Z,30.90
2022-08-18T12:12:59.166Z,30.70
2022-08-18T12:15:43.829Z,30.50
2022-08-18T12:18:26.312Z,30.50
2022-08-18T12:20:59.444Z,30.60
2022-08-18T12:23:28.090Z,31.40
2022-08-18T12:26:26.878Z,32.80
2022-08-18T12:28:54.454Z,34.60
2022-08-18T12:31:28.970Z,36.10
2022-08-18T12:34:09.483Z,36.10
2022-08-18T12:36:40.174Z,35.50
2022-08-18T12:39:07.086Z,34.50
2022-08-18T12:41:35.843Z,33.70
2022-08-18T12:44:02.565Z,33.00
2022-08-18T12:46:30.058Z,32.50
2022-08-18T12:48:57.811Z,32.00
2022-08-18T12:54:12.691Z,31.20
2022-08-18T12:56:40.841Z,30.90
2022-08-18T12:59:09.466Z,30.70
2022-08-18T13:01:38.331Z,30.60
2022-08-18T13:07:00.334Z,31.70
2022-08-18T13:09:35.660Z,32.10
2022-08-18T13:12:19.178Z,32.00
2022-08-18T13:14:46.716Z,32.10
2022-08-18T13:17:32.098Z,32.50
2022-08-18T13:20:14.484Z,32.90
2022-08-18T13:22:41.838Z,33.20
2022-08-18T13:25:11.830Z,32.90
2022-08-18T13:27:38.881Z,32.60
2022-08-18T13:30:31.466Z,32.30
2022-08-18T13:33:02.295Z,32.00
2022-08-18T13:35:38.008Z,31.70
2022-08-18T13:38:15.670Z,31.40
2022-08-18T13:40:48.020Z,31.20
2022-08-18T13:43:16.032Z,31.00
2022-08-18T13:45:53.075Z,30.80
2022-08-18T13:48:26.025Z,30.40
2022-08-18T13:50:59.922Z,30.20
2022-08-18T13:53:29.746Z,30.00
2022-08-18T13:55:58.688Z,29.80
2022-08-18T13:58:26.421Z,29.60
2022-08-18T14:01:37.330Z,29.40
2022-08-18T14:03:51.969Z,29.20
2022-08-18T14:06:25.154Z,28.90
2022-08-18T14:08:53.689Z,28.70
2022-08-18T14:11:26.425Z,28.50
2022-08-18T14:13:54.875Z,28.30
2022-08-18T14:16:22.334Z,28.10
2022-08-18T14:19:11.855Z,28.00
2022-08-18T14:24:40.140Z,27.70
2022-08-18T14:27:06.555Z,27.70
2022-08-18T14:29:46.167Z,27.60
2022-08-18T14:32:21.946Z,27.60
2022-08-18T14:35:32.836Z,27.60
2022-08-18T14:37:46.696Z,27.60
2022-08-18T14:40:16.240Z,27.60
2022-08-18T14:42:54.480Z,27.60
2022-08-18T14:45:27.996Z,27.70
2022-08-18T14:48:07.715Z,27.80
2022-08-18T14:50:39.511Z,27.90
2022-08-18T14:53:06.690Z,28.00
2022-08-18T14:55:34.050Z,28.10
2022-08-18T14:58:01.627Z,28.30
2022-08-18T15:00:31.591Z,28.40
2022-08-18T15:02:59.486Z,28.60
2022-08-18T15:05:26.715Z,28.80
2022-08-18T15:07:53.116Z,28.80
2022-08-18T15:10:23.640Z,28.90
2022-08-18T15:12:54.787Z,28.90
2022-08-18T15:15:22.552Z,28.90
2022-08-18T15:17:52.642Z,28.80
2022-08-18T15:20:19.804Z,28.80
2022-08-18T15:23:08.659Z,28.60
2022-08-18T15:25:34.896Z,28.60
2022-08-18T15:28:01.880Z,28.40
2022-08-18T15:30:29.611Z,28.30
2022-08-18T15:32:58.236Z,28.10
2022-08-18T15:35:25.154Z,28.00
2022-08-18T15:37:53.938Z,27.90
2022-08-18T15:40:35.582Z,27.90
2022-08-18T15:43:09.742Z,27.80
2022-08-18T15:45:42.966Z,27.70
2022-08-18T15:48:19.648Z,27.50
2022-08-18T15:50:51.194Z,27.50
2022-08-18T15:53:24.743Z,27.40
2022-08-18T15:55:56.976Z,27.30
2022-08-18T15:58:27.050Z,27.20
2022-08-18T16:00:56.335Z,27.10
2022-08-18T16:03:25.148Z,27.00
2022-08-18T16:05:54.481Z,26.90
2022-08-18T16:08:23.837Z,26.90
2022-08-18T16:10:50.813Z,26.90
2022-08-18T16:13:17.125Z,26.90
2022-08-18T16:15:48.876Z,26.80
2022-08-18T16:18:21.315Z,26.70
2022-08-18T16:20:48.169Z,26.70
2022-08-18T16:23:17.185Z,26.60
2022-08-18T16:25:43.770Z,26.50
2022-08-18T16:28:12.880Z,26.50
2022-08-18T16:30:41.536Z,26.50
2022-08-18T16:33:08.102Z,26.40
2022-08-18T16:35:35.217Z,26.40
2022-08-18T16:38:08.792Z,26.40
2022-08-18T16:40:35.983Z,26.40
2022-08-18T16:43:02.187Z,26.30
2022-08-18T16:45:31.433Z,26.30
2022-08-18T16:47:57.804Z,26.20
2022-08-18T16:50:24.849Z,26.20
2022-08-18T16:52:52.670Z,26.20
2022-08-18T16:55:20.068Z,26.10
2022-08-18T16:58:05.042Z,26.10
2022-08-18T17:00:54.852Z,26.10
2022-08-18T17:03:41.450Z,26.10
2022-08-18T17:06:13.817Z,26.00
2022-08-18T17:08:41.895Z,26.00
2022-08-18T17:11:13.706Z,26.00
2022-08-18T17:13:41.373Z,25.90
2022-08-18T17:16:09.364Z,25.90
2022-08-18T17:18:37.764Z,25.90
2022-08-18T17:21:06.801Z,25.80
2022-08-18T17:23:38.979Z,25.70
2022-08-18T17:26:17.029Z,25.70
2022-08-18T17:28:50.510Z,25.60
2022-08-18T17:31:22.053Z,25.60
2022-08-18T17:33:50.299Z,25.50
2022-08-18T17:36:22.368Z,25.50
2022-08-18T17:38:57.872Z,25.40
2022-08-18T17:41:24.869Z,25.40
2022-08-18T17:43:51.742Z,25.30
2022-08-18T17:46:37.651Z,25.20
2022-08-18T17:49:12.525Z,25.20
2022-08-18T17:51:48.985Z,25.10
2022-08-18T17:54:36.485Z,25.00
2022-08-18T17:57:10.165Z,24.90
2022-08-18T18:00:04.875Z,24.90
2022-08-18T18:02:34.809Z,24.80
2022-08-18T18:05:10.584Z,24.70
2022-08-18T18:07:52.350Z,24.70
2022-08-18T18:10:51.047Z,24.60
2022-08-18T18:13:30.833Z,24.60
2022-08-18T18:16:01.380Z,24.50
2022-08-18T18:18:42.432Z,24.40
2022-08-18T18:21:18.564Z,24.40
2022-08-18T18:24:13.509Z,24.30
2022-08-18T18:26:48.429Z,24.20
2022-08-18T18:29:21.597Z,24.20
2022-08-18T18:32:10.397Z,24.10
2022-08-18T18:34:43.675Z,24.00
2022-08-18T18:37:32.387Z,24.00
2022-08-18T18:40:06.437Z,23.90
2022-08-18T18:42:35.462Z,23.80
2022-08-18T18:45:07.772Z,23.70
2022-08-18T18:47:57.133Z,23.70
2022-08-18T18:50:38.232Z,23.60
2022-08-18T18:53:52.092Z,23.50
2022-08-18T18:56:36.044Z,23.40
2022-08-18T18:59:28.409Z,23.40
2022-08-18T19:02:35.644Z,23.30
2022-08-18T19:05:03.205Z,23.30
2022-08-18T19:07:53.055Z,23.10
2022-08-18T19:10:29.870Z,23.10
2022-08-18T19:13:11.335Z,23.00
2022-08-18T19:15:57.670Z,22.90
2022-08-18T19:18:30.971Z,22.90
2022-08-18T19:22:04.523Z,22.80
2022-08-18T19:24:01.334Z,22.70
2022-08-18T19:26:32.761Z,22.60
2022-08-18T19:29:13.091Z,22.50
2022-08-18T19:31:51.319Z,22.50
2022-08-18T19:34:31.222Z,22.40
2022-08-18T19:37:27.565Z,22.30
2022-08-18T19:40:16.137Z,22.30
2022-08-18T19:43:29.785Z,22.20
2022-08-18T19:46:00.604Z,22.10
2022-08-18T19:48:42.405Z,22.00
2022-08-18T19:51:19.165Z,21.90
2022-08-18T19:54:12.459Z,21.90
2022-08-18T19:57:03.832Z,21.80
2022-08-18T19:59:34.010Z,21.80
2022-08-18T20:02:24.937Z,21.70
2022-08-18T20:05:11.088Z,21.60
2022-08-18T20:07:55.927Z,21.60
2022-08-18T20:10:34.334Z,21.50
2022-08-18T20:13:32.307Z,21.40
2022-08-18T20:16:09.804Z,21.30
2022-08-18T20:18:41.537Z,21.20
2022-08-18T20:21:13.973Z,21.20
2022-08-18T20:23:58.787Z,21.10
2022-08-18T20:26:38.119Z,21.00
2022-08-18T20:29:10.800Z,21.00
2022-08-18T20:32:02.467Z,20.90
2022-08-18T20:34:34.309Z,20.80
2022-08-18T20:37:10.093Z,20.80
2022-08-18T20:39:42.062Z,20.70
2022-08-18T20:42:36.369Z,20.70
2022-08-18T20:45:26.238Z,20.60
2022-08-18T20:48:15.987Z,20.60
2022-08-18T20:50:49.695Z,20.50
2022-08-18T20:53:34.317Z,20.50
2022-08-18T20:56:32.650Z,20.40
2022-08-18T20:59:13.195Z,20.40
2022-08-18T21:01:39.682Z,20.30
2022-08-18T21:04:06.116Z,20.20
2022-08-18T21:06:38.489Z,20.20
2022-08-18T21:09:04.750Z,20.20
2022-08-18T21:11:43.139Z,20.10
2022-08-18T21:14:12.165Z,20.10
2022-08-18T21:16:42.171Z,20.00
2022-08-18T21:19:18.544Z,20.00
2022-08-18T21:21:54.457Z,20.00
2022-08-18T21:24:27.859Z,19.90
2022-08-18T21:26:59.205Z,19.80
2022-08-18T21:29:34.485Z,19.70
2022-08-18T21:32:20.890Z,19.70
2022-08-18T21:34:47.728Z,19.60
2022-08-18T21:37:17.390Z,19.60
2022-08-18T21:39:52.669Z,19.60
2022-08-18T21:42:25.513Z,19.50
2022-08-18T21:44:57.351Z,19.50
2022-08-18T21:47:32.912Z,19.40
2022-08-18T21:50:10.988Z,19.40
2022-08-18T21:52:50.274Z,19.40
2022-08-18T21:55:42.265Z,19.30
2022-08-18T21:58:17.279Z,19.30
2022-08-18T22:01:08.070Z,19.30
2022-08-18T22:03:36.203Z,19.20
2022-08-18T22:06:32.260Z,19.10
2022-08-18T22:09:19.809Z,19.10
2022-08-18T22:12:04.805Z,19.00
2022-08-18T22:14:54.605Z,19.00
2022-08-18T22:17:42.607Z,19.00
2022-08-18T22:20:45.829Z,19.00
2022-08-18T22:23:33.527Z,18.90
2022-08-18T22:26:21.214Z,18.90
2022-08-18T22:28:56.197Z,18.90
2022-08-18T22:31:24.926Z,18.80
2022-08-18T22:33:52.654Z,18.80
2022-08-18T22:36:25.094Z,18.80
2022-08-18T22:38:51.733Z,18.80
2022-08-18T22:41:17.912Z,18.70
2022-08-18T22:43:44.694Z,18.60
2022-08-18T22:46:12.068Z,18.70
2022-08-18T22:48:51.901Z,18.60
2022-08-18T22:51:23.613Z,18.60
2022-08-18T22:53:50.585Z,18.60
2022-08-18T22:56:17.584Z,18.50
2022-08-18T22:59:00.305Z,18.50
2022-08-18T23:01:40.776Z,18.40
2022-08-18T23:04:09.289Z,18.40
2022-08-18T23:06:36.026Z,18.40
2022-08-18T23:09:03.387Z,18.40
2022-08-18T23:11:30.606Z,18.40
2022-08-18T23:14:04.196Z,18.30
2022-08-18T23:16:32.330Z,18.30
2022-08-18T23:19:01.120Z,18.30
2022-08-18T23:21:34.207Z,18.30
2022-08-18T23:24:03.547Z,18.20
2022-08-18T23:26:29.710Z,18.20
2022-08-18T23:28:57.079Z,18.10
2022-08-18T23:31:23.612Z,18.10
2022-08-18T23:33:49.850Z,18.10
2022-08-18T23:36:17.179Z,18.10
2022-08-18T23:38:43.522Z,18.00
2022-08-18T23:41:12.068Z,18.00
2022-08-18T23:43:41.767Z,17.90
2022-08-18T23:46:28.040Z,17.90
2022-08-18T23:48:58.934Z,17.90
2022-08-18T23:51:32.590Z,17.90
2022-08-18T23:54:02.256Z,17.80
2022-08-18T23:56:30.522Z,17.70
2022-08-18T23:58:57.761Z,17.70
